sensor_id;sensor_type;location;lat;lon;timestamp;pressure;altitude;pressure_sealevel;temperature;humidity
72262;BME280;60173;52.112;8.648;2023-07-08T00:01:09;100956.81;;;15.75;74.96
72262;BME280;60173;52.112;8.648;2023-07-08T00:03:36;100956.19;;;15.78;75.75
72262;BME280;60173;52.112;8.648;2023-07-08T00:06:03;100945.38;;;15.99;75.02
72262;BME280;60173;52.112;8.648;2023-07-08T00:08:29;100944.44;;;15.87;74.59
72262;BME280;60173;52.112;8.648;2023-07-08T00:10:56;100936.69;;;15.71;74.59
72262;BME280;60173;52.112;8.648;2023-07-08T00:13:22;100932.34;;;15.70;74.27
72262;BME280;60173;52.112;8.648;2023-07-08T00:15:48;100924.31;;;15.82;73.27
72262;BME280;60173;52.112;8.648;2023-07-08T00:18:17;100924.94;;;16.14;72.14
72262;BME280;60173;52.112;8.648;2023-07-08T00:20:49;100915.44;;;16.12;72.33
72262;BME280;60173;52.112;8.648;2023-07-08T00:23:16;100933.63;;;16.08;72.76
72262;BME280;60173;52.112;8.648;2023-07-08T00:25:43;100944.91;;;15.80;75.74
72262;BME280;60173;52.112;8.648;2023-07-08T00:28:12;100943.06;;;15.49;77.45
72262;BME280;60173;52.112;8.648;2023-07-08T00:30:40;100941.72;;;15.29;78.60
72262;BME280;60173;52.112;8.648;2023-07-08T00:33:06;100942.72;;;15.25;79.61
72262;BME280;60173;52.112;8.648;2023-07-08T00:35:39;100932.97;;;15.10;79.90
72262;BME280;60173;52.112;8.648;2023-07-08T00:38:16;100933.72;;;14.84;81.36
72262;BME280;60173;52.112;8.648;2023-07-08T00:41:04;100930.38;;;14.65;83.03
72262;BME280;60173;52.112;8.648;2023-07-08T00:43:37;100931.28;;;14.83;81.65
72262;BME280;60173;52.112;8.648;2023-07-08T00:48:45;100925.84;;;14.91;80.28
72262;BME280;60173;52.112;8.648;2023-07-08T00:51:12;100924.25;;;14.90;80.35
72262;BME280;60173;52.112;8.648;2023-07-08T00:53:38;100928.44;;;14.97;80.02
72262;BME280;60173;52.112;8.648;2023-07-08T00:56:17;100931.44;;;14.86;79.88
72262;BME280;60173;52.112;8.648;2023-07-08T00:58:57;100925.91;;;14.69;81.13
72262;BME280;60173;52.112;8.648;2023-07-08T01:01:25;100928.50;;;14.74;81.16
72262;BME280;60173;52.112;8.648;2023-07-08T01:04:04;100916.44;;;14.75;80.68
72262;BME280;60173;52.112;8.648;2023-07-08T01:06:34;100923.53;;;14.76;80.45
72262;BME280;60173;52.112;8.648;2023-07-08T01:09:03;100909.41;;;14.83;80.24
72262;BME280;60173;52.112;8.648;2023-07-08T01:11:29;100910.81;;;14.80;80.08
72262;BME280;60173;52.112;8.648;2023-07-08T01:13:57;100916.47;;;14.84;79.50
72262;BME280;60173;52.112;8.648;2023-07-08T01:16:26;100910.53;;;14.82;79.79
72262;BME280;60173;52.112;8.648;2023-07-08T01:18:52;100912.94;;;14.83;79.57
72262;BME280;60173;52.112;8.648;2023-07-08T01:21:37;100905.50;;;14.75;79.54
72262;BME280;60173;52.112;8.648;2023-07-08T01:24:06;100907.16;;;14.85;79.89
72262;BME280;60173;52.112;8.648;2023-07-08T01:26:36;100911.84;;;14.84;80.27
72262;BME280;60173;52.112;8.648;2023-07-08T01:29:04;100899.13;;;14.88;79.93
72262;BME280;60173;52.112;8.648;2023-07-08T01:31:31;100910.19;;;14.83;80.06
72262;BME280;60173;52.112;8.648;2023-07-08T01:33:58;100902.25;;;14.64;80.48
72262;BME280;60173;52.112;8.648;2023-07-08T01:36:26;100898.84;;;14.36;82.79
72262;BME280;60173;52.112;8.648;2023-07-08T01:38:55;100894.13;;;14.28;84.16
72262;BME280;60173;52.112;8.648;2023-07-08T01:41:22;100888.66;;;14.28;84.22
72262;BME280;60173;52.112;8.648;2023-07-08T01:43:48;100891.34;;;14.19;84.36
72262;BME280;60173;52.112;8.648;2023-07-08T01:46:21;100890.31;;;14.07;84.66
72262;BME280;60173;52.112;8.648;2023-07-08T01:48:52;100894.22;;;13.92;85.69
72262;BME280;60173;52.112;8.648;2023-07-08T01:51:19;100891.34;;;13.74;87.15
72262;BME280;60173;52.112;8.648;2023-07-08T01:53:46;100893.00;;;13.62;88.10
72262;BME280;60173;52.112;8.648;2023-07-08T01:56:14;100894.81;;;13.66;88.29
72262;BME280;60173;52.112;8.648;2023-07-08T01:58:41;100889.94;;;13.77;87.90
72262;BME280;60173;52.112;8.648;2023-07-08T02:01:07;100899.63;;;13.83;86.94
72262;BME280;60173;52.112;8.648;2023-07-08T02:03:34;100892.13;;;13.89;86.45
72262;BME280;60173;52.112;8.648;2023-07-08T02:06:02;100890.66;;;13.91;86.01
72262;BME280;60173;52.112;8.648;2023-07-08T02:08:28;100886.22;;;13.95;85.81
72262;BME280;60173;52.112;8.648;2023-07-08T02:10:57;100881.66;;;13.91;85.71
72262;BME280;60173;52.112;8.648;2023-07-08T02:13:24;100873.94;;;14.07;84.84
72262;BME280;60173;52.112;8.648;2023-07-08T02:15:51;100873.81;;;14.12;84.39
72262;BME280;60173;52.112;8.648;2023-07-08T02:18:18;100868.41;;;13.98;84.73
72262;BME280;60173;52.112;8.648;2023-07-08T02:20:45;100875.28;;;13.95;85.36
72262;BME280;60173;52.112;8.648;2023-07-08T02:23:13;100877.78;;;13.83;86.56
72262;BME280;60173;52.112;8.648;2023-07-08T02:25:39;100871.56;;;13.69;87.40
72262;BME280;60173;52.112;8.648;2023-07-08T02:28:06;100860.94;;;13.67;87.79
72262;BME280;60173;52.112;8.648;2023-07-08T02:30:32;100865.69;;;13.62;87.94
72262;BME280;60173;52.112;8.648;2023-07-08T02:32:59;100862.88;;;13.67;87.83
72262;BME280;60173;52.112;8.648;2023-07-08T02:35:28;100862.88;;;13.67;87.70
72262;BME280;60173;52.112;8.648;2023-07-08T02:37:55;100862.00;;;13.57;87.84
72262;BME280;60173;52.112;8.648;2023-07-08T02:40:22;100856.63;;;13.52;88.49
72262;BME280;60173;52.112;8.648;2023-07-08T02:42:49;100859.06;;;13.54;88.26
72262;BME280;60173;52.112;8.648;2023-07-08T02:45:17;100861.72;;;13.45;88.59
72262;BME280;60173;52.112;8.648;2023-07-08T02:47:43;100864.97;;;13.33;89.39
72262;BME280;60173;52.112;8.648;2023-07-08T02:50:10;100867.56;;;13.25;90.25
72262;BME280;60173;52.112;8.648;2023-07-08T02:52:37;100864.97;;;13.20;90.51
72262;BME280;60173;52.112;8.648;2023-07-08T02:55:04;100869.13;;;13.17;91.57
72262;BME280;60173;52.112;8.648;2023-07-08T02:57:31;100865.19;;;13.09;91.69
72262;BME280;60173;52.112;8.648;2023-07-08T02:59:57;100864.56;;;12.99;92.48
72262;BME280;60173;52.112;8.648;2023-07-08T03:02:26;100857.53;;;12.98;92.81
72262;BME280;60173;52.112;8.648;2023-07-08T03:04:52;100857.72;;;13.01;93.02
72262;BME280;60173;52.112;8.648;2023-07-08T03:07:19;100864.19;;;13.05;92.90
72262;BME280;60173;52.112;8.648;2023-07-08T03:09:45;100864.81;;;13.02;92.63
72262;BME280;60173;52.112;8.648;2023-07-08T03:12:12;100863.16;;;13.01;93.07
72262;BME280;60173;52.112;8.648;2023-07-08T03:14:38;100869.13;;;13.03;93.27
72262;BME280;60173;52.112;8.648;2023-07-08T03:17:04;100867.53;;;13.02;92.48
72262;BME280;60173;52.112;8.648;2023-07-08T03:19:31;100875.72;;;13.02;93.19
72262;BME280;60173;52.112;8.648;2023-07-08T03:21:57;100872.38;;;13.05;92.89
72262;BME280;60173;52.112;8.648;2023-07-08T03:24:24;100871.94;;;13.12;92.46
72262;BME280;60173;52.112;8.648;2023-07-08T03:26:50;100880.72;;;13.23;91.79
72262;BME280;60173;52.112;8.648;2023-07-08T03:29:18;100875.28;;;13.23;91.42
72262;BME280;60173;52.112;8.648;2023-07-08T03:31:45;100872.56;;;13.23;91.44
72262;BME280;60173;52.112;8.648;2023-07-08T03:34:13;100872.47;;;13.28;91.30
72262;BME280;60173;52.112;8.648;2023-07-08T03:36:43;100876.50;;;13.30;90.87
72262;BME280;60173;52.112;8.648;2023-07-08T03:39:09;100880.72;;;13.23;91.04
72262;BME280;60173;52.112;8.648;2023-07-08T03:41:36;100869.81;;;13.23;91.58
72262;BME280;60173;52.112;8.648;2023-07-08T03:44:02;100866.88;;;13.33;91.09
72262;BME280;60173;52.112;8.648;2023-07-08T03:46:29;100863.06;;;13.34;90.54
72262;BME280;60173;52.112;8.648;2023-07-08T03:48:55;100867.91;;;13.37;90.47
72262;BME280;60173;52.112;8.648;2023-07-08T03:51:24;100858.38;;;13.48;90.21
72262;BME280;60173;52.112;8.648;2023-07-08T03:53:52;100862.47;;;13.60;89.73
72262;BME280;60173;52.112;8.648;2023-07-08T03:56:18;100865.09;;;13.65;89.43
72262;BME280;60173;52.112;8.648;2023-07-08T03:58:45;100859.22;;;13.71;88.97
72262;BME280;60173;52.112;8.648;2023-07-08T04:01:16;100866.97;;;13.78;88.32
72262;BME280;60173;52.112;8.648;2023-07-08T04:03:44;100874.44;;;13.86;87.80
72262;BME280;60173;52.112;8.648;2023-07-08T04:06:10;100870.13;;;13.94;87.32
72262;BME280;60173;52.112;8.648;2023-07-08T04:08:37;100868.59;;;14.01;87.32
72262;BME280;60173;52.112;8.648;2023-07-08T04:11:03;100869.94;;;14.13;86.90
72262;BME280;60173;52.112;8.648;2023-07-08T04:13:30;100867.38;;;14.16;86.67
72262;BME280;60173;52.112;8.648;2023-07-08T04:15:59;100869.66;;;14.23;86.16
72262;BME280;60173;52.112;8.648;2023-07-08T04:18:27;100873.81;;;14.43;85.49
72262;BME280;60173;52.112;8.648;2023-07-08T04:20:54;100871.63;;;14.54;84.88
72262;BME280;60173;52.112;8.648;2023-07-08T04:23:23;100871.50;;;14.59;84.70
72262;BME280;60173;52.112;8.648;2023-07-08T04:25:52;100871.69;;;14.62;84.93
72262;BME280;60173;52.112;8.648;2023-07-08T04:28:19;100876.38;;;14.71;84.97
72262;BME280;60173;52.112;8.648;2023-07-08T04:30:47;100871.28;;;14.86;84.55
72262;BME280;60173;52.112;8.648;2023-07-08T04:33:15;100875.34;;;14.98;84.20
72262;BME280;60173;52.112;8.648;2023-07-08T04:35:42;100878.47;;;15.13;83.96
72262;BME280;60173;52.112;8.648;2023-07-08T04:38:22;100879.94;;;15.37;82.59
72262;BME280;60173;52.112;8.648;2023-07-08T04:40:51;100878.97;;;15.59;82.50
72262;BME280;60173;52.112;8.648;2023-07-08T04:43:18;100886.91;;;15.87;81.69
72262;BME280;60173;52.112;8.648;2023-07-08T04:45:48;100884.16;;;16.13;80.69
72262;BME280;60173;52.112;8.648;2023-07-08T04:48:16;100889.13;;;16.19;79.70
72262;BME280;60173;52.112;8.648;2023-07-08T04:50:45;100892.81;;;16.32;79.61
72262;BME280;60173;52.112;8.648;2023-07-08T04:53:12;100894.22;;;16.47;79.44
72262;BME280;60173;52.112;8.648;2023-07-08T04:55:44;100888.41;;;16.48;79.44
72262;BME280;60173;52.112;8.648;2023-07-08T04:58:11;100889.22;;;16.58;79.71
72262;BME280;60173;52.112;8.648;2023-07-08T05:00:37;100884.66;;;16.62;79.75
72262;BME280;60173;52.112;8.648;2023-07-08T05:03:04;100885.78;;;16.69;79.21
72262;BME280;60173;52.112;8.648;2023-07-08T05:05:30;100886.72;;;16.82;78.09
72262;BME280;60173;52.112;8.648;2023-07-08T05:07:57;100882.28;;;16.99;77.30
72262;BME280;60173;52.112;8.648;2023-07-08T05:10:23;100886.94;;;17.07;76.79
72262;BME280;60173;52.112;8.648;2023-07-08T05:12:50;100878.09;;;17.22;76.09
72262;BME280;60173;52.112;8.648;2023-07-08T05:15:16;100875.78;;;17.33;75.67
72262;BME280;60173;52.112;8.648;2023-07-08T05:17:43;100880.59;;;17.36;74.17
72262;BME280;60173;52.112;8.648;2023-07-08T05:20:13;100874.63;;;17.55;73.98
72262;BME280;60173;52.112;8.648;2023-07-08T05:22:40;100872.31;;;17.66;73.61
72262;BME280;60173;52.112;8.648;2023-07-08T05:25:07;100881.22;;;17.83;72.91
72262;BME280;60173;52.112;8.648;2023-07-08T05:27:33;100880.66;;;17.90;72.18
72262;BME280;60173;52.112;8.648;2023-07-08T05:30:01;100872.19;;;18.16;70.22
72262;BME280;60173;52.112;8.648;2023-07-08T05:32:27;100873.25;;;18.36;67.48
72262;BME280;60173;52.112;8.648;2023-07-08T05:34:54;100873.97;;;18.45;66.69
72262;BME280;60173;52.112;8.648;2023-07-08T05:37:20;100867.44;;;18.50;66.11
72262;BME280;60173;52.112;8.648;2023-07-08T05:39:47;100870.78;;;18.56;65.12
72262;BME280;60173;52.112;8.648;2023-07-08T05:42:13;100869.19;;;18.67;64.93
72262;BME280;60173;52.112;8.648;2023-07-08T05:44:39;100863.63;;;18.76;65.23
72262;BME280;60173;52.112;8.648;2023-07-08T05:47:06;100873.66;;;18.59;65.24
72262;BME280;60173;52.112;8.648;2023-07-08T05:49:32;100865.00;;;18.36;64.77
72262;BME280;60173;52.112;8.648;2023-07-08T05:51:59;100869.53;;;18.65;65.05
72262;BME280;60173;52.112;8.648;2023-07-08T05:54:25;100867.72;;;19.06;64.23
72262;BME280;60173;52.112;8.648;2023-07-08T05:56:52;100869.91;;;19.13;63.65
72262;BME280;60173;52.112;8.648;2023-07-08T05:59:19;100868.25;;;19.36;64.20
72262;BME280;60173;52.112;8.648;2023-07-08T06:01:45;100861.31;;;19.55;61.75
72262;BME280;60173;52.112;8.648;2023-07-08T06:04:12;100866.25;;;19.61;63.19
72262;BME280;60173;52.112;8.648;2023-07-08T06:06:38;100859.97;;;19.89;63.93
72262;BME280;60173;52.112;8.648;2023-07-08T06:09:05;100861.16;;;20.04;62.97
72262;BME280;60173;52.112;8.648;2023-07-08T06:11:31;100859.84;;;20.14;61.80
72262;BME280;60173;52.112;8.648;2023-07-08T06:13:58;100861.38;;;20.27;62.78
72262;BME280;60173;52.112;8.648;2023-07-08T06:16:25;100856.84;;;20.50;62.25
72262;BME280;60173;52.112;8.648;2023-07-08T06:19:06;100858.22;;;20.72;62.09
72262;BME280;60173;52.112;8.648;2023-07-08T06:21:32;100852.47;;;20.97;61.07
72262;BME280;60173;52.112;8.648;2023-07-08T06:23:59;100852.19;;;21.18;58.69
72262;BME280;60173;52.112;8.648;2023-07-08T06:26:25;100849.19;;;21.07;58.32
72262;BME280;60173;52.112;8.648;2023-07-08T06:28:52;100848.47;;;21.10;57.66
72262;BME280;60173;52.112;8.648;2023-07-08T06:31:18;100851.69;;;21.32;55.94
72262;BME280;60173;52.112;8.648;2023-07-08T06:33:45;100852.19;;;21.53;55.91
72262;BME280;60173;52.112;8.648;2023-07-08T06:36:11;100862.00;;;21.89;55.42
72262;BME280;60173;52.112;8.648;2023-07-08T06:38:37;100857.28;;;21.90;55.05
72262;BME280;60173;52.112;8.648;2023-07-08T06:41:04;100853.63;;;21.86;54.46
72262;BME280;60173;52.112;8.648;2023-07-08T06:43:30;100852.59;;;22.14;55.99
72262;BME280;60173;52.112;8.648;2023-07-08T06:45:56;100853.78;;;22.36;56.23
72262;BME280;60173;52.112;8.648;2023-07-08T06:48:23;100852.91;;;21.89;53.65
72262;BME280;60173;52.112;8.648;2023-07-08T06:50:49;100849.91;;;22.17;55.22
72262;BME280;60173;52.112;8.648;2023-07-08T06:53:16;100848.19;;;22.32;53.97
72262;BME280;60173;52.112;8.648;2023-07-08T06:55:46;100857.19;;;22.48;54.92
72262;BME280;60173;52.112;8.648;2023-07-08T06:58:13;100860.59;;;22.65;54.05
72262;BME280;60173;52.112;8.648;2023-07-08T07:00:43;100857.00;;;22.87;53.99
72262;BME280;60173;52.112;8.648;2023-07-08T07:03:10;100850.91;;;23.01;50.78
72262;BME280;60173;52.112;8.648;2023-07-08T07:05:38;100849.97;;;22.93;50.24
72262;BME280;60173;52.112;8.648;2023-07-08T07:08:05;100854.06;;;23.26;50.05
72262;BME280;60173;52.112;8.648;2023-07-08T07:10:31;100847.81;;;23.33;49.13
72262;BME280;60173;52.112;8.648;2023-07-08T07:12:59;100855.41;;;23.39;48.88
72262;BME280;60173;52.112;8.648;2023-07-08T07:15:25;100854.69;;;23.46;48.21
72262;BME280;60173;52.112;8.648;2023-07-08T07:17:52;100851.59;;;23.51;47.48
72262;BME280;60173;52.112;8.648;2023-07-08T07:20:18;100859.94;;;23.55;47.53
72262;BME280;60173;52.112;8.648;2023-07-08T07:22:45;100851.91;;;23.73;48.60
72262;BME280;60173;52.112;8.648;2023-07-08T07:25:11;100847.59;;;23.75;48.25
72262;BME280;60173;52.112;8.648;2023-07-08T07:27:38;100844.16;;;23.89;48.07
72262;BME280;60173;52.112;8.648;2023-07-08T07:30:04;100847.88;;;24.04;46.38
72262;BME280;60173;52.112;8.648;2023-07-08T07:32:31;100849.97;;;24.14;47.11
72262;BME280;60173;52.112;8.648;2023-07-08T07:34:57;100847.81;;;24.38;47.25
72262;BME280;60173;52.112;8.648;2023-07-08T07:37:24;100841.66;;;24.55;48.07
72262;BME280;60173;52.112;8.648;2023-07-08T07:39:50;100848.09;;;24.66;45.24
72262;BME280;60173;52.112;8.648;2023-07-08T07:42:18;100847.31;;;24.69;44.94
72262;BME280;60173;52.112;8.648;2023-07-08T07:44:45;100848.03;;;24.59;45.39
72262;BME280;60173;52.112;8.648;2023-07-08T07:47:12;100845.63;;;24.57;45.40
72262;BME280;60173;52.112;8.648;2023-07-08T07:49:39;100851.69;;;24.70;45.14
72262;BME280;60173;52.112;8.648;2023-07-08T07:52:06;100854.53;;;24.81;45.06
72262;BME280;60173;52.112;8.648;2023-07-08T07:54:33;100851.44;;;24.90;44.77
72262;BME280;60173;52.112;8.648;2023-07-08T07:56:59;100851.94;;;25.06;44.87
72262;BME280;60173;52.112;8.648;2023-07-08T07:59:25;100853.28;;;25.27;43.76
72262;BME280;60173;52.112;8.648;2023-07-08T08:01:52;100844.84;;;25.12;43.21
72262;BME280;60173;52.112;8.648;2023-07-08T08:04:18;100855.22;;;25.22;42.76
72262;BME280;60173;52.112;8.648;2023-07-08T08:06:44;100852.50;;;25.30;42.61
72262;BME280;60173;52.112;8.648;2023-07-08T08:09:11;100843.88;;;25.49;44.06
72262;BME280;60173;52.112;8.648;2023-07-08T08:11:37;100841.50;;;25.55;42.36
72262;BME280;60173;52.112;8.648;2023-07-08T08:14:04;100841.94;;;25.67;43.30
72262;BME280;60173;52.112;8.648;2023-07-08T08:16:30;100848.50;;;25.20;41.94
72262;BME280;60173;52.112;8.648;2023-07-08T08:18:57;100843.41;;;25.40;41.70
72262;BME280;60173;52.112;8.648;2023-07-08T08:21:23;100841.88;;;25.50;43.00
72262;BME280;60173;52.112;8.648;2023-07-08T08:23:50;100843.56;;;25.76;43.39
72262;BME280;60173;52.112;8.648;2023-07-08T08:26:16;100842.00;;;25.82;42.71
72262;BME280;60173;52.112;8.648;2023-07-08T08:28:42;100838.50;;;25.96;44.06
72262;BME280;60173;52.112;8.648;2023-07-08T08:31:09;100835.72;;;26.10;42.20
72262;BME280;60173;52.112;8.648;2023-07-08T08:33:35;100834.56;;;26.22;43.25
72262;BME280;60173;52.112;8.648;2023-07-08T08:36:01;100844.53;;;26.48;44.16
72262;BME280;60173;52.112;8.648;2023-07-08T08:38:29;100842.91;;;26.43;42.40
72262;BME280;60173;52.112;8.648;2023-07-08T08:40:55;100844.16;;;26.56;42.11
72262;BME280;60173;52.112;8.648;2023-07-08T08:43:33;100844.13;;;26.74;41.81
72262;BME280;60173;52.112;8.648;2023-07-08T08:46:06;100845.69;;;26.90;43.04
72262;BME280;60173;52.112;8.648;2023-07-08T08:48:41;100839.31;;;26.93;41.45
72262;BME280;60173;52.112;8.648;2023-07-08T08:51:12;100850.06;;;27.01;41.35
72262;BME280;60173;52.112;8.648;2023-07-08T08:53:40;100848.06;;;27.20;41.48
72262;BME280;60173;52.112;8.648;2023-07-08T08:56:26;100842.41;;;27.41;40.66
72262;BME280;60173;52.112;8.648;2023-07-08T08:59:07;100843.16;;;27.53;39.69
72262;BME280;60173;52.112;8.648;2023-07-08T09:01:37;100841.13;;;27.64;41.70
72262;BME280;60173;52.112;8.648;2023-07-08T09:04:28;100847.06;;;27.80;41.57
72262;BME280;60173;52.112;8.648;2023-07-08T09:07:02;100846.25;;;27.76;40.66
72262;BME280;60173;52.112;8.648;2023-07-08T09:09:39;100847.47;;;27.71;40.16
72262;BME280;60173;52.112;8.648;2023-07-08T09:12:14;100846.72;;;27.64;38.94
72262;BME280;60173;52.112;8.648;2023-07-08T09:14:45;100849.81;;;27.87;40.37
72262;BME280;60173;52.112;8.648;2023-07-08T09:17:19;100843.84;;;27.78;39.23
72262;BME280;60173;52.112;8.648;2023-07-08T09:19:52;100840.53;;;28.05;39.48
72262;BME280;60173;52.112;8.648;2023-07-08T09:25:00;100836.44;;;28.20;38.99
72262;BME280;60173;52.112;8.648;2023-07-08T09:27:27;100841.94;;;28.31;38.40
72262;BME280;60173;52.112;8.648;2023-07-08T09:29:54;100843.34;;;28.01;38.18
72262;BME280;60173;52.112;8.648;2023-07-08T09:32:23;100841.19;;;28.23;39.19
72262;BME280;60173;52.112;8.648;2023-07-08T09:34:52;100844.34;;;28.29;41.84
72262;BME280;60173;52.112;8.648;2023-07-08T09:37:25;100828.25;;;28.51;39.71
72262;BME280;60173;52.112;8.648;2023-07-08T09:39:53;100830.53;;;28.63;38.00
72262;BME280;60173;52.112;8.648;2023-07-08T09:42:22;100830.84;;;28.20;38.15
72262;BME280;60173;52.112;8.648;2023-07-08T09:44:55;100832.34;;;28.32;38.34
72262;BME280;60173;52.112;8.648;2023-07-08T09:47:25;100832.31;;;28.39;39.32
72262;BME280;60173;52.112;8.648;2023-07-08T09:49:52;100826.59;;;28.01;39.14
72262;BME280;60173;52.112;8.648;2023-07-08T09:52:19;100831.81;;;27.96;39.83
72262;BME280;60173;52.112;8.648;2023-07-08T09:54:45;100830.94;;;28.06;38.41
72262;BME280;60173;52.112;8.648;2023-07-08T09:57:25;100833.84;;;28.51;39.51
72262;BME280;60173;52.112;8.648;2023-07-08T09:59:57;100837.59;;;28.75;39.51
72262;BME280;60173;52.112;8.648;2023-07-08T10:03:16;100844.63;;;28.94;38.99
72262;BME280;60173;52.112;8.648;2023-07-08T10:05:23;100835.09;;;28.88;39.77
72262;BME280;60173;52.112;8.648;2023-07-08T10:07:54;100836.94;;;29.05;41.09
72262;BME280;60173;52.112;8.648;2023-07-08T10:10:28;100844.03;;;28.72;39.00
72262;BME280;60173;52.112;8.648;2023-07-08T10:12:59;100836.94;;;28.60;39.52
72262;BME280;60173;52.112;8.648;2023-07-08T10:15:31;100840.13;;;28.62;40.67
72262;BME280;60173;52.112;8.648;2023-07-08T10:17:59;100837.66;;;28.71;40.62
72262;BME280;60173;52.112;8.648;2023-07-08T10:20:37;100840.25;;;28.89;41.43
72262;BME280;60173;52.112;8.648;2023-07-08T10:23:46;100835.56;;;29.20;40.97
72262;BME280;60173;52.112;8.648;2023-07-08T10:26:29;100836.97;;;28.98;41.75
72262;BME280;60173;52.112;8.648;2023-07-08T10:29:04;100830.19;;;29.02;39.53
72262;BME280;60173;52.112;8.648;2023-07-08T10:31:56;100822.13;;;29.08;42.53
72262;BME280;60173;52.112;8.648;2023-07-08T10:34:36;100829.25;;;29.16;41.51
72262;BME280;60173;52.112;8.648;2023-07-08T10:37:30;100828.69;;;29.28;38.44
72262;BME280;60173;52.112;8.648;2023-07-08T10:40:19;100824.22;;;29.35;39.41
72262;BME280;60173;52.112;8.648;2023-07-08T10:45:48;100828.13;;;29.41;39.61
72262;BME280;60173;52.112;8.648;2023-07-08T10:48:41;100824.94;;;29.39;36.42
72262;BME280;60173;52.112;8.648;2023-07-08T10:51:41;100827.06;;;29.65;39.56
72262;BME280;60173;52.112;8.648;2023-07-08T10:54:35;100820.44;;;29.79;38.68
72262;BME280;60173;52.112;8.648;2023-07-08T10:57:14;100820.69;;;29.92;38.34
72262;BME280;60173;52.112;8.648;2023-07-08T10:59:57;100816.13;;;29.75;40.10
72262;BME280;60173;52.112;8.648;2023-07-08T11:05:45;100807.56;;;30.12;38.58
72262;BME280;60173;52.112;8.648;2023-07-08T11:08:29;100809.75;;;30.01;33.89
72262;BME280;60173;52.112;8.648;2023-07-08T11:11:03;100808.34;;;30.13;33.16
72262;BME280;60173;52.112;8.648;2023-07-08T11:13:49;100806.09;;;30.31;35.00
72262;BME280;60173;52.112;8.648;2023-07-08T11:16:33;100799.75;;;30.27;33.30
72262;BME280;60173;52.112;8.648;2023-07-08T11:19:26;100799.81;;;30.24;34.27
72262;BME280;60173;52.112;8.648;2023-07-08T11:22:00;100802.25;;;30.45;33.84
72262;BME280;60173;52.112;8.648;2023-07-08T11:27:08;100784.81;;;30.57;33.83
72262;BME280;60173;52.112;8.648;2023-07-08T11:29:44;100787.91;;;30.63;30.95
72262;BME280;60173;52.112;8.648;2023-07-08T11:32:15;100791.03;;;30.69;33.50
72262;BME280;60173;52.112;8.648;2023-07-08T11:34:44;100786.09;;;30.76;32.79
72262;BME280;60173;52.112;8.648;2023-07-08T11:37:13;100781.44;;;30.90;32.30
72262;BME280;60173;52.112;8.648;2023-07-08T11:39:45;100790.91;;;30.76;33.37
72262;BME280;60173;52.112;8.648;2023-07-08T11:42:24;100780.16;;;30.94;31.31
72262;BME280;60173;52.112;8.648;2023-07-08T11:44:56;100780.94;;;30.95;32.67
72262;BME280;60173;52.112;8.648;2023-07-08T11:47:45;100770.19;;;31.13;34.44
72262;BME280;60173;52.112;8.648;2023-07-08T11:50:30;100781.53;;;31.06;33.08
72262;BME280;60173;52.112;8.648;2023-07-08T11:53:03;100775.84;;;31.10;33.06
72262;BME280;60173;52.112;8.648;2023-07-08T11:55:56;100770.88;;;31.17;29.96
72262;BME280;60173;52.112;8.648;2023-07-08T11:58:29;100774.25;;;31.48;33.10
72262;BME280;60173;52.112;8.648;2023-07-08T12:03:41;100757.50;;;31.45;28.24
72262;BME280;60173;52.112;8.648;2023-07-08T12:08:59;100759.50;;;31.44;34.14
72262;BME280;60173;52.112;8.648;2023-07-08T12:11:44;100756.69;;;31.44;29.77
72262;BME280;60173;52.112;8.648;2023-07-08T12:14:11;100756.56;;;31.51;28.29
72262;BME280;60173;52.112;8.648;2023-07-08T12:16:38;100752.41;;;31.56;33.43
72262;BME280;60173;52.112;8.648;2023-07-08T12:19:06;100759.19;;;31.59;28.10
72262;BME280;60173;52.112;8.648;2023-07-08T12:21:36;100753.56;;;31.42;29.47
72262;BME280;60173;52.112;8.648;2023-07-08T12:24:04;100749.69;;;31.36;26.95
72262;BME280;60173;52.112;8.648;2023-07-08T12:26:31;100746.03;;;31.56;29.19
72262;BME280;60173;52.112;8.648;2023-07-08T12:28:58;100752.03;;;31.74;29.63
72262;BME280;60173;52.112;8.648;2023-07-08T12:31:24;100742.47;;;31.71;29.71
72262;BME280;60173;52.112;8.648;2023-07-08T12:33:51;100746.59;;;31.83;31.11
72262;BME280;60173;52.112;8.648;2023-07-08T12:36:21;100738.72;;;31.94;28.48
72262;BME280;60173;52.112;8.648;2023-07-08T12:38:49;100734.03;;;31.88;30.10
72262;BME280;60173;52.112;8.648;2023-07-08T12:41:22;100735.25;;;31.70;29.01
72262;BME280;60173;52.112;8.648;2023-07-08T12:43:50;100736.84;;;31.35;32.53
72262;BME280;60173;52.112;8.648;2023-07-08T12:46:20;100738.97;;;31.47;28.27
72262;BME280;60173;52.112;8.648;2023-07-08T12:48:47;100730.63;;;31.80;29.40
72262;BME280;60173;52.112;8.648;2023-07-08T12:51:18;100732.94;;;32.02;28.80
72262;BME280;60173;52.112;8.648;2023-07-08T12:53:45;100740.38;;;32.08;32.67
72262;BME280;60173;52.112;8.648;2023-07-08T12:56:12;100727.56;;;32.24;28.90
72262;BME280;60173;52.112;8.648;2023-07-08T12:58:43;100743.97;;;32.25;27.67
72262;BME280;60173;52.112;8.648;2023-07-08T13:01:17;100740.47;;;32.05;29.78
72262;BME280;60173;52.112;8.648;2023-07-08T13:03:48;100736.78;;;32.08;26.81
72262;BME280;60173;52.112;8.648;2023-07-08T13:06:19;100737.13;;;32.10;29.55
72262;BME280;60173;52.112;8.648;2023-07-08T13:08:46;100744.94;;;32.02;31.14
72262;BME280;60173;52.112;8.648;2023-07-08T13:11:15;100725.38;;;32.15;27.88
72262;BME280;60173;52.112;8.648;2023-07-08T13:13:50;100734.22;;;31.81;26.57
72262;BME280;60173;52.112;8.648;2023-07-08T13:16:17;100730.22;;;31.98;27.23
72262;BME280;60173;52.112;8.648;2023-07-08T13:18:44;100730.78;;;31.89;28.79
72262;BME280;60173;52.112;8.648;2023-07-08T13:21:15;100737.72;;;31.85;29.56
72262;BME280;60173;52.112;8.648;2023-07-08T13:23:42;100729.72;;;31.67;26.88